createdAt,value
2023-11-21T00:00:25.587Z,99280.78
2023-11-21T00:02:53.406Z,99285.63
2023-11-21T00:05:21.079Z,99285.25
2023-11-21T00:07:48.720Z,99287.53
2023-11-21T00:10:22.485Z,99291.41
2023-11-21T00:12:50.229Z,99294.41
2023-11-21T00:15:17.842Z,99294.03
2023-11-21T00:17:45.964Z,99296.22
2023-11-21T00:20:28.880Z,99297.53
2023-11-21T00:22:56.522Z,99301.66
2023-11-21T00:25:24.093Z,99289.00
2023-11-21T00:27:52.196Z,99296.69
2023-11-21T00:30:29.049Z,99298.41
2023-11-21T00:32:56.903Z,99301.78
2023-11-21T00:35:24.502Z,99295.50
2023-11-21T00:37:52.110Z,99305.13
2023-11-21T00:40:26.081Z,99303.47
2023-11-21T00:42:53.668Z,99307.69
2023-11-21T00:45:21.379Z,99304.06
2023-11-21T00:47:49.270Z,99303.94
2023-11-21T00:50:26.065Z,99303.19
2023-11-21T00:52:53.854Z,99299.84
2023-11-21T00:55:22.177Z,99311.41
2023-11-21T00:57:49.714Z,99315.13
2023-11-21T01:00:24.650Z,99307.44
2023-11-21T01:02:52.440Z,99312.84
2023-11-21T01:05:21.011Z,99316.47
2023-11-21T01:07:48.739Z,99318.16
2023-11-21T01:10:28.262Z,99322.50
2023-11-21T01:12:56.185Z,99322.38
2023-11-21T01:15:23.758Z,99318.66
2023-11-21T01:17:51.500Z,99333.34
2023-11-21T01:20:19.239Z,99329.72
2023-11-21T01:22:56.505Z,99333.81
2023-11-21T01:25:24.124Z,99332.75
2023-11-21T01:27:51.694Z,99334.31
2023-11-21T01:30:25.158Z,99339.34
2023-11-21T01:32:52.767Z,99333.81
2023-11-21T01:35:20.466Z,99333.69
2023-11-21T01:37:49.487Z,99338.88
2023-11-21T01:40:25.894Z,99333.34
2023-11-21T01:42:53.513Z,99329.72
2023-11-21T01:45:21.127Z,99331.41
2023-11-21T01:47:48.842Z,99336.59
2023-11-21T01:50:25.518Z,99332.97
2023-11-21T01:52:53.098Z,99334.06
2023-11-21T01:55:27.643Z,99337.84
2023-11-21T01:58:06.267Z,99332.72
2023-11-21T02:00:34.536Z,99343.44
2023-11-21T02:03:02.662Z,99340.66
2023-11-21T02:05:45.328Z,99333.56
2023-11-21T02:08:12.923Z,99341.31
2023-11-21T02:10:41.163Z,99342.88
2023-11-21T02:13:09.056Z,99341.78
2023-11-21T02:15:50.980Z,99341.53
2023-11-21T02:18:19.073Z,99342.25
2023-11-21T02:20:47.281Z,99349.13
2023-11-21T02:23:30.116Z,99348.41
2023-11-21T02:25:57.995Z,99356.38
2023-11-21T02:28:27.289Z,99364.44
2023-11-21T02:30:57.138Z,99373.38
2023-11-21T02:33:30.555Z,99376.28
2023-11-21T02:35:58.142Z,99379.16
2023-11-21T02:38:25.705Z,99383.75
2023-11-21T02:40:53.280Z,99386.63
2023-11-21T02:43:32.890Z,99393.09
2023-11-21T02:46:00.457Z,99389.03
2023-11-21T02:48:27.959Z,99395.41
2023-11-21T02:50:55.571Z,99385.03
2023-11-21T02:53:29.222Z,99384.41
2023-11-21T02:55:56.852Z,99385.53
2023-11-21T02:58:24.440Z,99377.94
2023-11-21T03:00:53.014Z,99373.81
2023-11-21T03:03:29.867Z,99385.59
2023-11-21T03:05:57.478Z,99385.84
2023-11-21T03:08:24.992Z,99393.09
2023-11-21T03:10:52.678Z,99386.94
2023-11-21T03:13:26.182Z,99394.06
2023-11-21T03:15:53.792Z,99395.03
2023-11-21T03:18:23.306Z,99402.00
2023-11-21T03:20:50.955Z,99401.03
2023-11-21T03:23:30.475Z,99402.84
2023-11-21T03:25:58.037Z,99402.72
2023-11-21T03:28:25.933Z,99407.06
2023-11-21T03:30:53.500Z,99405.13
2023-11-21T03:33:30.383Z,99414.66
2023-11-21T03:35:58.004Z,99411.03
2023-11-21T03:38:25.502Z,99413.56
2023-11-21T03:40:53.060Z,99415.25
2023-11-21T03:43:29.629Z,99415.97
2023-11-21T03:45:57.158Z,99422.03
2023-11-21T03:48:24.763Z,99423.72
2023-11-21T03:50:52.355Z,99424.44
2023-11-21T03:53:29.293Z,99427.09
2023-11-21T03:55:56.893Z,99432.38
2023-11-21T03:58:24.493Z,99439.38
2023-11-21T04:00:52.413Z,99444.66
2023-11-21T04:03:32.155Z,99443.72
2023-11-21T04:05:59.742Z,99443.72
2023-11-21T04:08:27.660Z,99453.34
2023-11-21T04:10:56.838Z,99463.72
2023-11-21T04:13:31.374Z,99457.47
2023-11-21T04:15:59.085Z,99462.66
2023-11-21T04:18:26.890Z,99461.69
2023-11-21T04:20:54.444Z,99466.88
2023-11-21T04:23:28.381Z,99474.84
2023-11-21T04:25:58.269Z,99484.34
2023-11-21T04:28:26.487Z,99472.91
2023-11-21T04:30:54.121Z,99474.59
2023-11-21T04:33:27.914Z,99479.91
2023-11-21T04:35:56.043Z,99480.84
2023-11-21T04:38:23.608Z,99471.22
2023-11-21T04:40:51.182Z,99469.28
2023-11-21T04:43:27.703Z,99478.94
2023-11-21T04:45:55.361Z,99478.81
2023-11-21T04:48:22.914Z,99483.16
2023-11-21T04:50:50.586Z,99487.50
2023-11-21T04:53:30.775Z,99482.09
2023-11-21T04:55:58.454Z,99484.72
2023-11-21T04:58:26.095Z,99489.06
2023-11-21T05:00:53.645Z,99482.91
2023-11-21T05:03:33.281Z,99482.09
2023-11-21T05:06:00.968Z,99493.50
2023-11-21T05:08:28.536Z,99489.19
2023-11-21T05:10:56.240Z,99491.00
2023-11-21T05:13:29.918Z,99492.78
2023-11-21T05:15:58.045Z,99489.19
2023-11-21T05:18:28.228Z,99489.06
2023-11-21T05:20:55.970Z,99495.22
2023-11-21T05:23:29.379Z,99492.47
2023-11-21T05:25:57.692Z,99495.00
2023-11-21T05:28:25.306Z,99506.34
2023-11-21T05:31:03.704Z,99506.22
2023-11-21T05:33:38.506Z,99506.84
2023-11-21T05:36:06.238Z,99514.66
2023-11-21T05:38:47.600Z,99519.75
2023-11-21T05:41:15.256Z,99522.88
2023-11-21T05:43:43.183Z,99516.72
2023-11-21T05:46:10.930Z,99528.91
2023-11-21T05:48:50.483Z,99518.16
2023-11-21T05:51:18.792Z,99519.88
2023-11-21T05:53:47.814Z,99532.03
2023-11-21T05:59:08.099Z,99535.91
2023-11-21T06:01:54.647Z,99546.31
2023-11-21T06:04:25.398Z,99546.91
2023-11-21T06:06:53.052Z,99560.78
2023-11-21T06:12:02.104Z,99567.53
2023-11-21T06:14:30.073Z,99566.81
2023-11-21T06:16:58.833Z,99561.63
2023-11-21T06:19:38.445Z,99574.28
2023-11-21T06:22:06.047Z,99582.59
2023-11-21T06:24:33.645Z,99577.53
2023-11-21T06:27:01.278Z,99580.56
2023-11-21T06:29:38.284Z,99581.00
2023-11-21T06:32:06.424Z,99583.16
2023-11-21T06:34:34.491Z,99589.44
2023-11-21T06:37:02.307Z,99589.53
2023-11-21T06:39:42.649Z,99586.06
2023-11-21T06:42:10.291Z,99591.47
2023-11-21T06:47:21.709Z,99599.78
2023-11-21T06:49:50.291Z,99601.00
2023-11-21T06:52:17.905Z,99603.09
2023-11-21T06:54:57.818Z,99606.94
2023-11-21T06:57:25.441Z,99607.19
2023-11-21T06:59:53.072Z,99620.44
2023-11-21T07:02:20.823Z,99623.09
2023-11-21T07:04:57.771Z,99623.81
2023-11-21T07:07:26.134Z,99619.38
2023-11-21T07:09:53.778Z,99628.28
2023-11-21T07:15:07.075Z,99640.44
2023-11-21T07:17:38.366Z,99642.03
2023-11-21T07:20:23.763Z,99654.25
2023-11-21T07:22:51.529Z,99656.56
2023-11-21T07:25:19.384Z,99658.84
2023-11-21T07:27:47.026Z,99663.00
2023-11-21T07:30:26.761Z,99658.16
2023-11-21T07:32:54.542Z,99667.34
2023-11-21T07:35:22.556Z,99676.69
2023-11-21T07:37:50.507Z,99676.19
2023-11-21T07:40:31.717Z,99679.25
2023-11-21T07:43:00.771Z,99683.25
2023-11-21T07:45:43.819Z,99683.75
2023-11-21T07:48:12.851Z,99690.50
2023-11-21T07:50:40.528Z,99690.28
2023-11-21T07:53:08.315Z,99689.19
2023-11-21T07:55:48.964Z,99689.94
2023-11-21T07:58:17.455Z,99693.41
2023-11-21T08:00:45.172Z,99680.03
2023-11-21T08:03:28.096Z,99684.97
2023-11-21T08:05:56.118Z,99674.25
2023-11-21T08:08:23.979Z,99689.22
2023-11-21T08:10:57.586Z,99691.00
2023-11-21T08:13:29.088Z,99697.19
2023-11-21T08:15:57.863Z,99693.66
2023-11-21T08:18:26.135Z,99699.94
2023-11-21T08:20:55.270Z,99691.88
2023-11-21T08:23:29.718Z,99700.44
2023-11-21T08:25:57.538Z,99700.81
2023-11-21T08:28:27.218Z,99708.19
2023-11-21T08:30:55.893Z,99718.34
2023-11-21T08:33:29.595Z,99720.50
2023-11-21T08:35:57.579Z,99724.53
2023-11-21T08:38:25.313Z,99727.66
2023-11-21T08:40:53.033Z,99731.88
2023-11-21T08:43:30.428Z,99738.53
2023-11-21T08:45:58.224Z,99739.28
2023-11-21T08:48:26.026Z,99746.03
2023-11-21T08:50:53.978Z,99748.69
2023-11-21T08:53:32.178Z,99753.03
2023-11-21T08:56:01.966Z,99765.34
2023-11-21T08:58:29.891Z,99769.72
2023-11-21T09:00:57.857Z,99767.06
2023-11-21T09:03:30.099Z,99772.38
2023-11-21T09:05:57.995Z,99767.91
2023-11-21T09:08:25.801Z,99775.75
2023-11-21T09:10:53.751Z,99779.25
2023-11-21T09:13:27.488Z,99781.69
2023-11-21T09:15:55.591Z,99776.22
2023-11-21T09:18:23.324Z,99783.97
2023-11-21T09:20:51.104Z,99782.03
2023-11-21T09:23:31.044Z,99781.78
2023-11-21T09:26:01.188Z,99781.56
2023-11-21T09:28:29.181Z,99787.50
2023-11-21T09:30:57.137Z,99791.84
2023-11-21T09:33:31.797Z,99796.78
2023-11-21T09:36:00.040Z,99805.47
2023-11-21T09:38:30.040Z,99803.56
2023-11-21T09:40:59.648Z,99801.38
2023-11-21T09:43:30.624Z,99804.63
2023-11-21T09:45:58.492Z,99814.91
2023-11-21T09:48:26.379Z,99817.34
2023-11-21T09:50:55.264Z,99813.59
2023-11-21T09:53:31.195Z,99823.16
2023-11-21T09:55:59.077Z,99822.09
2023-11-21T09:58:26.988Z,99822.69
2023-11-21T10:00:54.855Z,99817.97
2023-11-21T10:03:32.411Z,99824.97
2023-11-21T10:06:02.066Z,99823.06
2023-11-21T10:08:42.248Z,99823.06
2023-11-21T10:11:16.041Z,99828.25
2023-11-21T10:13:44.385Z,99815.78
2023-11-21T10:16:13.515Z,99819.44
2023-11-21T10:18:50.993Z,99820.25
2023-11-21T10:21:18.921Z,99821.00
2023-11-21T10:23:47.869Z,99820.03
2023-11-21T10:26:40.598Z,99827.03
2023-11-21T10:29:13.811Z,99830.41
2023-11-21T10:31:56.548Z,99828.72
2023-11-21T10:34:24.467Z,99831.50
2023-11-21T10:36:52.604Z,99829.94
2023-11-21T10:39:36.097Z,99834.41
2023-11-21T10:42:03.919Z,99837.09
2023-11-21T10:44:31.809Z,99836.00
2023-11-21T10:47:02.429Z,99833.06
2023-11-21T10:49:36.537Z,99839.00
2023-11-21T10:52:05.382Z,99837.91
2023-11-21T10:54:33.182Z,99836.09
2023-11-21T10:57:01.208Z,99838.63
2023-11-21T10:59:35.398Z,99840.22
2023-11-21T11:02:05.577Z,99839.84
2023-11-21T11:04:33.587Z,99844.66
2023-11-21T11:07:02.646Z,99843.59
2023-11-21T11:09:39.584Z,99856.63
2023-11-21T11:12:07.685Z,99861.25
2023-11-21T11:14:36.205Z,99863.31
2023-11-21T11:17:23.229Z,99857.50
2023-11-21T11:19:50.997Z,99861.38
2023-11-21T11:22:18.960Z,99866.94
2023-11-21T11:25:00.041Z,99859.22
2023-11-21T11:27:28.116Z,99867.31
2023-11-21T11:29:55.814Z,99864.03
2023-11-21T11:32:23.767Z,99867.06
2023-11-21T11:35:09.977Z,99866.56
2023-11-21T11:37:38.312Z,99868.41
2023-11-21T11:40:06.437Z,99878.19
2023-11-21T11:42:43.190Z,99867.69
2023-11-21T11:45:13.958Z,99873.00
2023-11-21T11:47:42.409Z,99874.69
2023-11-21T11:50:22.549Z,99875.53
2023-11-21T11:52:51.964Z,99868.41
2023-11-21T11:55:20.431Z,99871.06
2023-11-21T11:57:49.524Z,99873.72
2023-11-21T12:00:27.505Z,99873.84
2023-11-21T12:02:55.536Z,99881.00
2023-11-21T12:05:24.704Z,99878.44
2023-11-21T12:07:54.276Z,99879.16
2023-11-21T12:10:26.135Z,99891.38
2023-11-21T12:12:54.310Z,99887.63
2023-11-21T12:15:22.699Z,99892.84
2023-11-21T12:17:51.656Z,99895.38
2023-11-21T12:20:28.923Z,99905.19
2023-11-21T12:22:56.891Z,99900.09
2023-11-21T12:25:26.255Z,99899.47
2023-11-21T12:27:54.762Z,99906.75
2023-11-21T12:30:25.683Z,99907.81
2023-11-21T12:32:53.917Z,99906.25
2023-11-21T12:35:22.524Z,99912.53
2023-11-21T12:37:50.615Z,99923.19
2023-11-21T12:40:28.038Z,99924.25
2023-11-21T12:42:56.230Z,99925.19
2023-11-21T12:45:24.072Z,99933.31
2023-11-21T12:47:52.327Z,99931.72
2023-11-21T12:50:30.147Z,99921.31
2023-11-21T12:52:58.526Z,99921.56
2023-11-21T12:55:27.476Z,99925.19
2023-11-21T12:57:55.964Z,99925.41
2023-11-21T13:00:29.484Z,99929.03
2023-11-21T13:03:09.695Z,99926.38
2023-11-21T13:05:52.932Z,99942.34
2023-11-21T13:08:24.127Z,99931.09
2023-11-21T13:10:52.343Z,99926.84
2023-11-21T13:13:29.955Z,99938.44
2023-11-21T13:15:58.341Z,99941.25
2023-11-21T13:18:28.200Z,99953.78
2023-11-21T13:20:56.263Z,99959.97
2023-11-21T13:23:30.603Z,99968.81
2023-11-21T13:26:04.997Z,99967.44
2023-11-21T13:28:50.241Z,99973.00
2023-11-21T13:31:27.885Z,99982.16
2023-11-21T13:34:05.675Z,99987.72
2023-11-21T13:36:34.949Z,99990.72
2023-11-21T13:39:08.544Z,99991.91
2023-11-21T13:44:57.140Z,99998.19
2023-11-21T13:47:26.905Z,99996.47
2023-11-21T13:49:55.988Z,100006.28
2023-11-21T13:52:43.958Z,100009.88
2023-11-21T13:55:16.521Z,100009.88
2023-11-21T13:57:48.387Z,100009.88
2023-11-21T14:00:33.490Z,100013.50
2023-11-21T14:03:03.028Z,100018.81
2023-11-21T14:05:52.440Z,100026.06
2023-11-21T14:08:21.486Z,100035.09
2023-11-21T14:10:52.192Z,100035.22
2023-11-21T14:13:29.038Z,100033.41
2023-11-21T14:16:00.239Z,100037.03
2023-11-21T14:18:31.941Z,100040.53
2023-11-21T14:21:18.391Z,100037.88
2023-11-21T14:23:46.939Z,100040.66
2023-11-21T14:29:00.338Z,100040.75
2023-11-21T14:31:30.611Z,100037.25
2023-11-21T14:33:58.784Z,100038.97
2023-11-21T14:36:35.671Z,100047.66
2023-11-21T14:39:05.215Z,100048.63
2023-11-21T14:41:56.394Z,100053.09
2023-11-21T14:44:25.180Z,100049.69
2023-11-21T14:46:54.170Z,100052.59
2023-11-21T14:49:55.166Z,100057.16
2023-11-21T14:52:44.676Z,100062.69
2023-11-21T14:55:23.145Z,100072.81
2023-11-21T14:57:56.348Z,100073.03
2023-11-21T15:00:40.882Z,100088.25
2023-11-21T15:03:11.290Z,100090.47
2023-11-21T15:05:58.447Z,100097.91
2023-11-21T15:08:29.747Z,100110.69
2023-11-21T15:10:57.521Z,100109.41
2023-11-21T15:13:29.537Z,100122.16
2023-11-21T15:15:57.475Z,100127.81
2023-11-21T15:18:26.059Z,100122.72
2023-11-21T15:20:54.039Z,100124.72
2023-11-21T15:23:36.275Z,100127.47
2023-11-21T15:26:05.493Z,100143.63
2023-11-21T15:28:49.625Z,100143.97
2023-11-21T15:31:22.096Z,100139.81
2023-11-21T15:33:54.215Z,100142.69
2023-11-21T15:36:38.660Z,100153.38
2023-11-21T15:39:06.791Z,100144.78
2023-11-21T15:41:35.327Z,100160.06
2023-11-21T15:44:05.726Z,100159.53
2023-11-21T15:46:42.002Z,100156.22
2023-11-21T15:49:13.761Z,100168.97
2023-11-21T15:52:05.790Z,100176.38
2023-11-21T15:54:36.226Z,100189.88
2023-11-21T15:57:19.262Z,100193.56
2023-11-21T15:59:47.270Z,100195.47
2023-11-21T16:02:17.504Z,100205.22
2023-11-21T16:05:04.975Z,100211.41
2023-11-21T16:07:32.817Z,100215.94
2023-11-21T16:10:00.577Z,100221.25
2023-11-21T16:12:44.207Z,100226.66
2023-11-21T16:15:12.599Z,100227.50
2023-11-21T16:17:40.434Z,100233.84
2023-11-21T16:20:28.621Z,100233.19
2023-11-21T16:22:56.614Z,100237.00
2023-11-21T16:25:24.755Z,100245.25
2023-11-21T16:27:52.665Z,100249.16
2023-11-21T16:30:27.944Z,100249.16
2023-11-21T16:32:56.109Z,100259.63
2023-11-21T16:35:24.068Z,100271.00
2023-11-21T16:37:52.110Z,100265.69
2023-11-21T16:40:26.347Z,100274.72
2023-11-21T16:42:54.332Z,100280.31
2023-11-21T16:45:22.192Z,100291.19
2023-11-21T16:47:50.891Z,100297.56
2023-11-21T16:50:26.581Z,100302.22
2023-11-21T16:52:55.645Z,100306.84
2023-11-21T16:55:24.582Z,100309.69
2023-11-21T16:57:53.246Z,100315.28
2023-11-21T17:00:24.183Z,100320.78
2023-11-21T17:02:52.336Z,100329.78
2023-11-21T17:05:21.692Z,100343.97
2023-11-21T17:07:49.846Z,100338.75
2023-11-21T17:10:26.961Z,100351.19
2023-11-21T17:12:54.821Z,100350.22
2023-11-21T17:15:23.242Z,100355.53
2023-11-21T17:17:52.384Z,100352.97
2023-11-21T17:20:27.964Z,100359.00
2023-11-21T17:22:57.555Z,100368.00
2023-11-21T17:25:25.763Z,100369.06
2023-11-21T17:27:53.824Z,100369.22
2023-11-21T17:30:28.720Z,100374.66
2023-11-21T17:32:58.040Z,100383.81
2023-11-21T17:35:26.144Z,100392.91
2023-11-21T17:37:54.113Z,100405.47
2023-11-21T17:40:27.834Z,100406.44
2023-11-21T17:42:55.886Z,100411.06
2023-11-21T17:45:24.179Z,100413.88
2023-11-21T17:47:52.420Z,100417.75
2023-11-21T17:50:29.431Z,100434.59
2023-11-21T17:53:00.810Z,100433.84
2023-11-21T17:55:29.232Z,100427.00
2023-11-21T17:57:58.601Z,100436.06
2023-11-21T18:00:29.657Z,100447.69
2023-11-21T18:02:57.459Z,100449.75
2023-11-21T18:05:26.122Z,100449.06
2023-11-21T18:07:54.916Z,100456.34
2023-11-21T18:10:28.981Z,100454.72
2023-11-21T18:12:56.807Z,100461.97
2023-11-21T18:15:24.767Z,100469.16
2023-11-21T18:17:55.294Z,100464.91
2023-11-21T18:20:26.032Z,100463.94
2023-11-21T18:22:53.983Z,100470.19
2023-11-21T18:25:21.862Z,100476.16
2023-11-21T18:27:49.665Z,100476.00
2023-11-21T18:30:27.220Z,100484.72
2023-11-21T18:32:55.105Z,100479.34
2023-11-21T18:35:23.918Z,100484.72
2023-11-21T18:37:51.922Z,100482.13
2023-11-21T18:40:29.999Z,100488.47
2023-11-21T18:42:58.019Z,100492.16
2023-11-21T18:45:26.289Z,100501.88
2023-11-21T18:47:54.142Z,100498.47
2023-11-21T18:50:28.198Z,100510.91
2023-11-21T18:52:56.225Z,100510.00
2023-11-21T18:55:27.137Z,100516.31
2023-11-21T18:57:56.421Z,100513.00
2023-11-21T19:00:28.412Z,100526.31
2023-11-21T19:02:56.453Z,100532.53
2023-11-21T19:05:24.554Z,100529.97
2023-11-21T19:07:53.948Z,100531.78
2023-11-21T19:10:30.981Z,100539.81
2023-11-21T19:13:00.480Z,100546.03
2023-11-21T19:18:54.487Z,100551.66
2023-11-21T19:21:21.821Z,100558.06
2023-11-21T19:23:52.394Z,100555.56
2023-11-21T19:26:35.715Z,100554.97
2023-11-21T19:29:05.710Z,100564.03
2023-11-21T19:31:33.507Z,100567.75
2023-11-21T19:34:03.934Z,100565.34
2023-11-21T19:36:35.988Z,100569.97
2023-11-21T19:39:04.162Z,100577.91
2023-11-21T19:41:32.010Z,100570.81
2023-11-21T19:44:00.388Z,100580.41
2023-11-21T19:46:39.548Z,100574.00
2023-11-21T19:49:10.003Z,100579.03
2023-11-21T19:51:52.641Z,100578.88
2023-11-21T19:54:20.838Z,100586.56
2023-11-21T19:56:48.727Z,100582.81
2023-11-21T19:59:17.290Z,100588.78
2023-11-21T20:01:54.700Z,100596.66
2023-11-21T20:04:22.565Z,100594.00
2023-11-21T20:06:56.648Z,100589.59
2023-11-21T20:09:40.398Z,100598.44
2023-11-21T20:12:08.325Z,100597.53
2023-11-21T20:14:36.455Z,100597.59
2023-11-21T20:17:04.811Z,100603.84
2023-11-21T20:19:38.767Z,100600.44
2023-11-21T20:22:06.698Z,100608.44
2023-11-21T20:24:35.905Z,100607.88
2023-11-21T20:27:04.170Z,100608.25
2023-11-21T20:29:41.081Z,100607.63
2023-11-21T20:32:13.017Z,100605.97
2023-11-21T20:34:41.180Z,100615.88
2023-11-21T20:37:24.382Z,100612.53
2023-11-21T20:39:52.889Z,100629.41
2023-11-21T20:42:20.709Z,100626.78
2023-11-21T20:45:00.857Z,100625.94
2023-11-21T20:47:32.038Z,100633.09
2023-11-21T20:50:01.578Z,100635.81
2023-11-21T20:52:44.749Z,100642.81
2023-11-21T20:55:13.170Z,100645.38
2023-11-21T20:57:42.142Z,100641.88
2023-11-21T21:00:24.830Z,100654.97
2023-11-21T21:02:54.122Z,100658.44
2023-11-21T21:05:24.024Z,100660.31
2023-11-21T21:07:52.973Z,100662.09
2023-11-21T21:10:27.195Z,100659.44
2023-11-21T21:12:55.972Z,100659.38
2023-11-21T21:15:24.236Z,100657.59
2023-11-21T21:17:52.138Z,100664.69
2023-11-21T21:20:29.082Z,100657.50
2023-11-21T21:22:57.975Z,100660.91
2023-11-21T21:25:25.852Z,100664.44
2023-11-21T21:27:54.879Z,100677.66
2023-11-21T21:30:29.717Z,100669.72
2023-11-21T21:33:01.783Z,100679.53
2023-11-21T21:35:46.488Z,100682.94
2023-11-21T21:38:14.335Z,100685.59
2023-11-21T21:40:44.140Z,100691.66
2023-11-21T21:43:11.948Z,100682.00
2023-11-21T21:45:51.785Z,100687.25
2023-11-21T21:48:20.004Z,100683.72
2023-11-21T21:50:47.822Z,100684.59
2023-11-21T21:53:29.549Z,100686.28
2023-11-21T21:55:57.384Z,100695.94
2023-11-21T21:58:26.332Z,100696.81
2023-11-21T22:00:54.294Z,100703.03
2023-11-21T22:03:31.935Z,100706.53
2023-11-21T22:06:02.272Z,100704.75
2023-11-21T22:08:54.379Z,100721.56
2023-11-21T22:11:22.448Z,100723.28
2023-11-21T22:13:50.765Z,100729.41
2023-11-21T22:16:32.395Z,100734.78
2023-11-21T22:19:02.189Z,100742.72
2023-11-21T22:21:32.813Z,100747.16
2023-11-21T22:24:00.818Z,100747.16
2023-11-21T22:26:37.941Z,100758.59
2023-11-21T22:29:06.484Z,100762.09
2023-11-21T22:31:34.221Z,100763.03
2023-11-21T22:34:02.042Z,100774.47
2023-11-21T22:36:36.165Z,100770.91
2023-11-21T22:39:04.233Z,100774.31
2023-11-21T22:41:31.901Z,100767.31
2023-11-21T22:44:00.256Z,100770.72
2023-11-21T22:46:37.457Z,100771.66
2023-11-21T22:49:09.430Z,100774.31
2023-11-21T22:54:18.726Z,100761.25
2023-11-21T22:56:46.489Z,100767.31
2023-11-21T22:59:14.349Z,100753.22
2023-11-21T23:01:57.208Z,100755.84
2023-11-21T23:04:24.934Z,100756.72
2023-11-21T23:06:53.130Z,100762.03
2023-11-21T23:09:38.876Z,100758.59
2023-11-21T23:12:06.586Z,100771.97
2023-11-21T23:14:34.351Z,100775.72
2023-11-21T23:17:02.197Z,100781.94
2023-11-21T23:19:44.932Z,100776.66
2023-11-21T23:22:16.430Z,100770.50
2023-11-21T23:24:57.795Z,100769.63
2023-11-21T23:27:25.873Z,100772.38
2023-11-21T23:29:55.586Z,100771.66
2023-11-21T23:32:23.755Z,100774.44
2023-11-21T23:34:57.788Z,100780.75
2023-11-21T23:37:25.411Z,100775.53
2023-11-21T23:39:53.044Z,100789.69
2023-11-21T23:42:21.493Z,100796.81
2023-11-21T23:44:58.045Z,100799.56
2023-11-21T23:47:26.833Z,100798.75
2023-11-21T23:49:55.100Z,100808.44
2023-11-21T23:52:23.669Z,100814.56
2023-11-21T23:55:00.636Z,100818.16
2023-11-21T23:57:28.447Z,100821.66
2023-11-21T23:59:56.752Z,100832.16
